Time;durP1;ratioP1;P1;durP2;ratioP2;P2;SDS_P1;SDS_P2;PMS_P1;PMS_P2;Temp;Humidity;BMP_temperature;BMP_pressure;BME280_temperature;BME280_humidity;BME280_pressure;Samples;Min_cycle;Max_cycle;Signal;HPM_P1;HPM_P2
2022/07/14 00:02:17;;;;;;;9.98;2.55;;;16.80;99.90;;;;;;5046385;28;20334;-60
2022/07/14 00:04:43;;;;;;;10.07;2.80;;;16.80;99.90;;;;;;5048429;28;20043;-61
2022/07/14 00:07:09;;;;;;;11.18;2.65;;;16.70;99.90;;;;;;5046576;28;20041;-60
2022/07/14 00:09:36;;;;;;;10.52;2.70;;;16.70;99.90;;;;;;5051580;28;20033;-61
2022/07/14 00:12:02;;;;;;;9.70;2.67;;;16.70;99.90;;;;;;5047276;28;20370;-62
2022/07/14 00:14:28;;;;;;;14.10;2.67;;;16.70;99.90;;;;;;5049244;28;20044;-61
2022/07/14 00:16:53;;;;;;;10.77;3.08;;;16.60;99.90;;;;;;5046249;28;20072;-60
2022/07/14 00:19:19;;;;;;;13.52;2.83;;;16.60;99.90;;;;;;5048091;28;20029;-60
2022/07/14 00:21:45;;;;;;;9.82;2.83;;;16.50;99.90;;;;;;5051494;28;20485;-60
2022/07/14 00:24:11;;;;;;;11.20;2.67;;;16.60;99.90;;;;;;5045915;28;20067;-60
2022/07/14 00:26:39;;;;;;;11.95;2.65;;;16.50;99.90;;;;;;5049420;28;20037;-60
2022/07/14 00:29:06;;;;;;;9.65;2.35;;;16.40;99.90;;;;;;5044905;28;20049;-60
2022/07/14 00:31:31;;;;;;;9.20;2.78;;;16.40;99.90;;;;;;5046469;28;20075;-60
2022/07/14 00:33:58;;;;;;;11.85;2.92;;;16.40;99.90;;;;;;5049697;28;20072;-61
2022/07/14 00:36:26;;;;;;;13.00;3.33;;;16.30;99.90;;;;;;5045422;28;20381;-61
2022/07/14 00:38:52;;;;;;;9.82;2.45;;;16.30;99.90;;;;;;5048967;28;20103;-61
2022/07/14 00:41:18;;;;;;;7.88;2.55;;;16.20;99.90;;;;;;5045326;28;20040;-60
2022/07/14 00:43:44;;;;;;;9.73;2.47;;;16.20;99.90;;;;;;5043076;28;20032;-60
2022/07/14 00:46:10;;;;;;;10.95;3.08;;;16.20;99.90;;;;;;5029261;28;20532;-60
2022/07/14 00:48:35;;;;;;;11.10;2.67;;;16.10;99.90;;;;;;5045063;28;20458;-61
2022/07/14 00:51:01;;;;;;;14.13;2.70;;;16.10;99.90;;;;;;5047254;28;20474;-60
2022/07/14 00:53:26;;;;;;;10.50;2.50;;;16.10;99.90;;;;;;5048009;28;20048;-60
2022/07/14 00:55:52;;;;;;;12.85;3.20;;;16.10;99.90;;;;;;5047903;28;20044;-61
2022/07/14 00:58:18;;;;;;;11.10;2.75;;;16.10;99.90;;;;;;5027296;28;20450;-60
2022/07/14 01:00:44;;;;;;;9.30;2.60;;;16.00;99.90;;;;;;5045037;28;20529;-61
2022/07/14 01:03:10;;;;;;;11.52;2.47;;;16.00;99.90;;;;;;5044746;28;20047;-60
2022/07/14 01:05:37;;;;;;;10.60;2.83;;;16.00;99.90;;;;;;5030334;28;20037;-61
2022/07/14 01:08:03;;;;;;;9.68;2.63;;;16.00;99.90;;;;;;5046355;28;20028;-61
2022/07/14 01:10:29;;;;;;;13.20;2.90;;;15.90;99.90;;;;;;5047561;28;20037;-61
2022/07/14 01:13:00;;;;;;;13.30;2.75;;;15.90;99.90;;;;;;5045063;28;20390;-61
2022/07/14 01:15:26;;;;;;;9.50;2.50;;;15.80;99.90;;;;;;5048346;28;20048;-60
2022/07/14 01:17:51;;;;;;;10.35;3.03;;;15.90;99.90;;;;;;5045926;28;20037;-60
2022/07/14 01:20:18;;;;;;;10.73;2.90;;;15.80;99.90;;;;;;5045537;28;20028;-60
2022/07/14 01:22:46;;;;;;;9.95;2.53;;;15.80;99.90;;;;;;5046999;28;20049;-60
2022/07/14 01:25:13;;;;;;;8.77;2.75;;;15.80;99.90;;;;;;5040998;28;20430;-61
2022/07/14 01:27:39;;;;;;;12.10;2.88;;;15.80;99.90;;;;;;5042525;28;20034;-60
2022/07/14 01:30:07;;;;;;;14.38;3.55;;;15.80;99.90;;;;;;5030874;28;20037;-60
2022/07/14 01:32:32;;;;;;;9.20;2.83;;;15.70;99.90;;;;;;5048947;28;20465;-60
2022/07/14 01:34:59;;;;;;;9.90;2.80;;;15.70;99.90;;;;;;5049872;28;20040;-60
2022/07/14 01:37:25;;;;;;;11.50;3.08;;;15.80;99.90;;;;;;5051305;28;20045;-60
2022/07/14 01:39:51;;;;;;;12.77;2.88;;;15.70;99.90;;;;;;5054126;28;20504;-61
2022/07/14 01:42:17;;;;;;;11.45;3.42;;;15.80;99.90;;;;;;5049236;28;20083;-61
2022/07/14 01:44:43;;;;;;;10.05;3.42;;;15.70;99.90;;;;;;5047314;28;20117;-60
2022/07/14 01:47:09;;;;;;;12.85;3.30;;;15.70;99.90;;;;;;5034817;28;20394;-60
2022/07/14 01:49:35;;;;;;;11.60;3.45;;;15.70;99.90;;;;;;5048402;28;20036;-60
2022/07/14 01:52:02;;;;;;;8.88;2.90;;;15.70;99.90;;;;;;5032839;28;20067;-61
2022/07/14 01:54:27;;;;;;;11.45;3.38;;;15.70;99.90;;;;;;5034098;28;20366;-60
2022/07/14 01:56:53;;;;;;;9.68;3.05;;;15.60;99.90;;;;;;5032573;28;20046;-60
2022/07/14 01:59:19;;;;;;;9.15;3.30;;;15.60;99.90;;;;;;5053938;28;20058;-61
2022/07/14 02:01:44;;;;;;;10.93;2.90;;;15.60;99.90;;;;;;5051179;28;20043;-60
2022/07/14 02:04:18;;;;;;;9.75;3.20;;;15.60;99.90;;;;;;5049715;28;20106;-61
2022/07/14 02:06:50;;;;;;;10.77;2.80;;;15.60;99.90;;;;;;5046063;28;20033;-59
2022/07/14 02:09:16;;;;;;;13.45;3.40;;;15.50;99.90;;;;;;5053528;28;20060;-60
2022/07/14 02:14:30;;;;;;;9.90;2.45;;;15.50;99.90;;;;;;5049345;28;20044;-60
2022/07/14 02:16:56;;;;;;;6.82;2.63;;;15.50;99.90;;;;;;5047903;28;20501;-60
2022/07/14 02:19:24;;;;;;;11.48;3.20;;;15.60;99.90;;;;;;5051959;28;20372;-60
2022/07/14 02:21:51;;;;;;;10.00;2.85;;;15.50;99.90;;;;;;5054040;28;20094;-60
2022/07/14 02:24:17;;;;;;;12.45;3.25;;;15.50;99.90;;;;;;5047602;28;20041;-60
2022/07/14 02:26:44;;;;;;;13.57;3.00;;;15.40;99.90;;;;;;5051675;28;20051;-60
2022/07/14 02:29:10;;;;;;;12.52;2.92;;;15.30;99.90;;;;;;5031066;28;20397;-60
2022/07/14 02:31:36;;;;;;;10.70;2.70;;;15.20;99.90;;;;;;5048416;28;20037;-60
2022/07/14 02:34:03;;;;;;;11.23;2.90;;;15.20;99.90;;;;;;5052252;28;20071;-60
2022/07/14 02:36:29;;;;;;;8.38;2.47;;;15.20;99.90;;;;;;5048394;28;20048;-60
2022/07/14 02:38:55;;;;;;;10.65;3.00;;;15.20;99.90;;;;;;5053274;28;20342;-61
2022/07/14 02:41:21;;;;;;;8.85;2.65;;;15.20;99.90;;;;;;5049083;28;20041;-60
2022/07/14 02:43:47;;;;;;;11.90;3.17;;;15.10;99.90;;;;;;5045387;28;20336;-60
2022/07/14 02:46:16;;;;;;;12.60;3.08;;;15.00;99.90;;;;;;5048208;28;20044;-61
2022/07/14 02:48:42;;;;;;;9.80;2.80;;;15.00;99.90;;;;;;5048471;28;20033;-60
2022/07/14 02:51:09;;;;;;;10.68;3.15;;;15.00;99.90;;;;;;5048602;28;20113;-60
2022/07/14 02:53:36;;;;;;;11.30;3.03;;;15.00;99.90;;;;;;5040560;28;20037;-60
2022/07/14 02:56:03;;;;;;;11.73;3.20;;;15.00;99.90;;;;;;5049854;28;20108;-60
2022/07/14 02:58:29;;;;;;;8.63;3.25;;;14.90;99.90;;;;;;5049154;28;20041;-60
2022/07/14 03:00:55;;;;;;;7.82;2.92;;;14.80;99.90;;;;;;5052758;28;20049;-62
2022/07/14 03:03:21;;;;;;;8.32;3.53;;;14.80;99.90;;;;;;5046045;28;20041;-61
2022/07/14 03:05:48;;;;;;;11.73;3.40;;;14.80;99.90;;;;;;5032739;28;20044;-60
2022/07/14 03:08:14;;;;;;;10.05;3.47;;;14.80;99.90;;;;;;5030199;28;20048;-60
2022/07/14 03:10:40;;;;;;;12.23;3.88;;;14.80;99.90;;;;;;5051149;28;20485;-60
2022/07/14 03:13:06;;;;;;;10.88;3.25;;;14.70;99.90;;;;;;5048079;28;20042;-61
2022/07/14 03:15:32;;;;;;;9.85;3.08;;;14.70;99.90;;;;;;5031850;28;20041;-60
2022/07/14 03:17:58;;;;;;;7.97;3.30;;;14.70;99.90;;;;;;5048940;28;20105;-60
2022/07/14 03:20:24;;;;;;;11.10;3.42;;;14.70;99.90;;;;;;5048799;28;20450;-60
2022/07/14 03:22:50;;;;;;;9.57;3.17;;;14.70;99.90;;;;;;5049052;28;20048;-60
2022/07/14 03:25:16;;;;;;;10.90;3.80;;;14.70;99.90;;;;;;5049616;28;20040;-61
2022/07/14 03:27:46;;;;;;;8.15;3.17;;;14.70;99.90;;;;;;5047531;28;20029;-61
2022/07/14 03:30:12;;;;;;;12.23;3.33;;;14.70;99.90;;;;;;5049740;28;20484;-61
2022/07/14 03:32:38;;;;;;;10.60;3.20;;;14.60;99.90;;;;;;5029181;28;20441;-60
2022/07/14 03:35:07;;;;;;;8.40;3.10;;;14.70;99.90;;;;;;5049886;28;20041;-61
2022/07/14 03:37:33;;;;;;;6.65;3.05;;;14.70;99.90;;;;;;5030011;28;20056;-60
2022/07/14 03:39:59;;;;;;;8.27;2.83;;;14.70;99.90;;;;;;5048445;28;20033;-60
2022/07/14 03:42:24;;;;;;;8.30;3.10;;;14.70;99.90;;;;;;5047429;28;20056;-60
2022/07/14 03:44:50;;;;;;;8.20;2.85;;;14.70;99.90;;;;;;5044595;28;20080;-60
2022/07/14 03:47:16;;;;;;;7.63;2.65;;;14.80;99.90;;;;;;5049289;28;20462;-61
2022/07/14 03:49:42;;;;;;;9.25;3.05;;;14.70;99.90;;;;;;5047246;28;20508;-60
2022/07/14 03:52:09;;;;;;;10.50;3.20;;;14.70;99.90;;;;;;5034005;28;20036;-61
2022/07/14 03:54:35;;;;;;;10.25;2.72;;;14.60;99.90;;;;;;5046936;28;20462;-60
2022/07/14 03:57:00;;;;;;;9.43;2.95;;;14.70;99.90;;;;;;5048923;28;20049;-60
2022/07/14 03:59:26;;;;;;;6.82;2.67;;;14.60;99.90;;;;;;5051521;28;20033;-60
2022/07/14 04:01:51;;;;;;;9.85;2.60;;;14.60;99.90;;;;;;5046959;28;20463;-60
2022/07/14 04:04:17;;;;;;;13.07;3.30;;;14.60;99.90;;;;;;5029960;28;20040;-61
2022/07/14 04:06:43;;;;;;;9.85;2.95;;;14.70;99.90;;;;;;5046647;28;20043;-60
2022/07/14 04:09:08;;;;;;;7.68;3.00;;;14.70;99.90;;;;;;5050791;28;20044;-61
2022/07/14 04:11:34;;;;;;;7.15;2.55;;;14.80;99.90;;;;;;5048011;28;20035;-60
2022/07/14 04:14:00;;;;;;;10.05;2.70;;;14.80;99.90;;;;;;5049191;28;20043;-60
2022/07/14 04:16:25;;;;;;;9.57;2.80;;;14.80;99.90;;;;;;5049411;28;20174;-61
2022/07/14 04:18:51;;;;;;;8.57;3.15;;;14.90;99.90;;;;;;5046896;28;20045;-60
2022/07/14 04:21:16;;;;;;;11.25;3.10;;;14.90;99.90;;;;;;5048033;28;20162;-60
2022/07/14 04:23:43;;;;;;;6.25;2.63;;;14.90;99.90;;;;;;5046376;28;20549;-60
2022/07/14 04:26:09;;;;;;;9.13;3.13;;;15.00;99.90;;;;;;5048909;28;20099;-60
2022/07/14 04:28:35;;;;;;;11.07;2.95;;;15.00;99.90;;;;;;5049044;28;20037;-60
2022/07/14 04:31:02;;;;;;;9.40;2.90;;;15.10;99.90;;;;;;5029941;28;20045;-60
2022/07/14 04:33:28;;;;;;;9.32;2.80;;;15.10;99.90;;;;;;5047590;28;20040;-60
2022/07/14 04:35:54;;;;;;;9.98;2.75;;;15.10;99.90;;;;;;5027573;28;20048;-60
2022/07/14 04:38:20;;;;;;;9.45;2.95;;;15.10;99.90;;;;;;5029743;28;20041;-60
2022/07/14 04:40:49;;;;;;;11.77;2.55;;;15.10;99.90;;;;;;5047925;28;20064;-60
2022/07/14 04:43:16;;;;;;;7.78;2.63;;;15.20;99.90;;;;;;5044824;28;20037;-60
2022/07/14 04:45:42;;;;;;;7.75;3.08;;;15.20;99.90;;;;;;5046659;28;20458;-60
2022/07/14 04:48:08;;;;;;;12.90;3.10;;;15.30;99.90;;;;;;5044177;28;20095;-61
2022/07/14 04:53:18;;;;;;;8.43;2.88;;;15.40;99.90;;;;;;5029032;28;20117;-60
2022/07/14 04:55:43;;;;;;;8.95;2.53;;;15.50;99.90;;;;;;5048160;28;20033;-60
2022/07/14 04:58:09;;;;;;;9.02;2.55;;;15.40;99.90;;;;;;5050026;28;20052;-61
2022/07/14 05:00:35;;;;;;;8.27;2.83;;;15.90;99.90;;;;;;5038748;28;20076;-60
2022/07/14 05:03:00;;;;;;;10.70;2.80;;;16.70;99.90;;;;;;5037153;28;20084;-60
2022/07/14 05:05:26;;;;;;;8.05;2.42;;;17.90;99.90;;;;;;5040669;28;20042;-61
2022/07/14 05:07:52;;;;;;;9.25;2.50;;;19.00;99.90;;;;;;5021180;28;20455;-61
2022/07/14 05:10:17;;;;;;;7.13;2.28;;;19.90;99.90;;;;;;5042177;28;20099;-61
2022/07/14 05:12:43;;;;;;;7.75;1.98;;;20.80;99.90;;;;;;5027029;28;20410;-60
2022/07/14 05:15:09;;;;;;;8.63;2.40;;;21.60;99.90;;;;;;5027615;28;20094;-61
2022/07/14 05:17:35;;;;;;;8.88;1.80;;;22.30;99.90;;;;;;5037709;28;20052;-61
2022/07/14 05:20:01;;;;;;;8.45;2.05;;;22.80;99.90;;;;;;5040595;28;20037;-62
2022/07/14 05:22:27;;;;;;;7.30;2.42;;;23.00;99.90;;;;;;5042477;28;20071;-61
2022/07/14 05:24:53;;;;;;;10.00;2.70;;;23.20;99.90;;;;;;5046799;28;20497;-61
2022/07/14 05:27:19;;;;;;;7.32;1.83;;;23.40;99.90;;;;;;5028019;28;20041;-60
2022/07/14 05:29:44;;;;;;;12.57;2.22;;;23.70;99.90;;;;;;5045042;28;20029;-60
2022/07/14 05:32:10;;;;;;;9.27;2.10;;;23.50;99.90;;;;;;5049840;28;20048;-61
2022/07/14 05:34:44;;;;;;;7.63;2.28;;;23.20;99.90;;;;;;5045314;28;20112;-61
2022/07/14 05:37:11;;;;;;;5.75;1.60;;;23.30;99.90;;;;;;5044648;28;20105;-61
2022/07/14 05:39:37;;;;;;;6.78;1.90;;;23.30;99.90;;;;;;5051596;28;20036;-61
2022/07/14 05:42:03;;;;;;;9.88;1.88;;;23.60;99.90;;;;;;5050728;28;20729;-61
2022/07/14 05:44:29;;;;;;;6.60;2.20;;;23.40;99.90;;;;;;5045292;28;20040;-61
2022/07/14 05:46:54;;;;;;;6.75;2.15;;;23.00;99.90;;;;;;5045516;28;20033;-61
2022/07/14 05:49:20;;;;;;;6.72;1.77;;;22.80;99.90;;;;;;5049937;28;20036;-62
2022/07/14 05:51:46;;;;;;;7.63;2.05;;;22.30;99.90;;;;;;5044478;28;20086;-62
2022/07/14 05:54:12;;;;;;;8.65;2.05;;;21.70;99.90;;;;;;5045334;28;20048;-62
2022/07/14 05:56:38;;;;;;;8.55;2.00;;;21.10;99.90;;;;;;5047828;28;20036;-60
2022/07/14 05:59:04;;;;;;;9.27;2.38;;;20.50;99.90;;;;;;5047806;28;20131;-60
2022/07/14 06:01:30;;;;;;;8.18;2.08;;;19.90;99.90;;;;;;5046086;28;20124;-61
2022/07/14 06:03:57;;;;;;;8.93;2.10;;;19.50;99.90;;;;;;5050498;28;20037;-60
2022/07/14 06:06:23;;;;;;;8.80;2.50;;;19.40;99.90;;;;;;5045827;28;20175;-60
2022/07/14 06:08:50;;;;;;;8.88;2.20;;;19.40;99.90;;;;;;5047159;28;20044;-60
2022/07/14 06:11:16;;;;;;;9.07;2.10;;;19.60;99.90;;;;;;5044263;28;20092;-60
2022/07/14 06:13:45;;;;;;;7.53;1.75;;;19.80;99.90;;;;;;5047616;28;20047;-60
2022/07/14 06:16:12;;;;;;;8.15;2.20;;;20.00;99.90;;;;;;5046640;28;20053;-61
2022/07/14 06:18:37;;;;;;;7.90;1.80;;;20.50;99.90;;;;;;5030594;28;20032;-61
2022/07/14 06:21:09;;;;;;;7.53;1.92;;;21.20;99.90;;;;;;5047809;28;20166;-61
2022/07/14 06:23:35;;;;;;;6.90;1.73;;;21.20;99.90;;;;;;5046591;28;20057;-63
2022/07/14 06:26:12;;;;;;;6.72;2.20;;;20.80;99.90;;;;;;5038526;28;20450;-64
2022/07/14 06:28:37;;;;;;;8.88;2.03;;;20.70;99.90;;;;;;5031429;28;20045;-65
2022/07/14 06:31:04;;;;;;;5.50;1.77;;;20.70;99.90;;;;;;5052029;28;20045;-64
2022/07/14 06:33:30;;;;;;;6.60;2.17;;;21.20;99.90;;;;;;5051696;28;20037;-64
2022/07/14 06:35:55;;;;;;;10.85;1.77;;;22.20;99.90;;;;;;5031858;28;20106;-64
2022/07/14 06:38:21;;;;;;;6.53;1.63;;;23.00;99.90;;;;;;5052724;28;20446;-64
2022/07/14 06:40:47;;;;;;;6.57;1.60;;;23.70;99.90;;;;;;5027771;28;20052;-63
2022/07/14 06:43:12;;;;;;;8.23;2.22;;;24.40;99.40;;;;;;5054965;28;20125;-65
2022/07/14 06:45:39;;;;;;;8.00;2.28;;;24.80;98.70;;;;;;5037529;28;20098;-65
2022/07/14 06:48:05;;;;;;;11.27;2.10;;;24.90;98.30;;;;;;5032857;28;20477;-63
2022/07/14 06:50:31;;;;;;;7.13;1.80;;;25.00;98.00;;;;;;5032808;28;20079;-65
2022/07/14 06:52:56;;;;;;;8.90;1.70;;;24.60;98.10;;;;;;5030565;28;20087;-64
2022/07/14 06:55:24;;;;;;;6.55;1.70;;;24.20;98.80;;;;;;5049244;28;20029;-63
2022/07/14 06:57:50;;;;;;;6.55;1.80;;;23.60;99.40;;;;;;5047239;28;20037;-64
2022/07/14 07:00:16;;;;;;;8.15;1.83;;;23.20;99.80;;;;;;5049096;28;20029;-64
2022/07/14 07:02:42;;;;;;;8.65;1.88;;;23.40;99.70;;;;;;5048062;28;20036;-64
2022/07/14 07:08:00;;;;;;;6.38;1.60;;;23.00;99.90;;;;;;5047887;28;20112;-64
2022/07/14 07:10:27;;;;;;;9.43;3.17;;;22.70;99.90;;;;;;5045130;28;20485;-64
2022/07/14 07:12:53;;;;;;;6.50;1.70;;;22.10;99.90;;;;;;5051734;28;20040;-64
2022/07/14 07:15:19;;;;;;;9.15;2.03;;;22.10;99.90;;;;;;5047126;28;20045;-64
2022/07/14 07:17:45;;;;;;;7.88;1.70;;;21.90;99.90;;;;;;5046965;28;20043;-63
2022/07/14 07:20:11;;;;;;;5.93;1.83;;;21.90;99.90;;;;;;5048289;28;20040;-64
2022/07/14 07:22:37;;;;;;;7.30;1.75;;;22.00;99.90;;;;;;5030810;28;20037;-64
2022/07/14 07:25:06;;;;;;;6.40;2.30;;;22.00;99.90;;;;;;5049828;28;20040;-64
2022/07/14 07:27:33;;;;;;;5.07;2.00;;;21.70;99.90;;;;;;5046105;28;20037;-64
2022/07/14 07:30:00;;;;;;;7.47;2.00;;;21.60;99.90;;;;;;5049883;28;20037;-64
2022/07/14 07:32:26;;;;;;;7.00;2.30;;;21.70;99.90;;;;;;5029981;28;20119;-64
2022/07/14 07:34:51;;;;;;;6.43;2.20;;;21.80;99.90;;;;;;5048204;28;20051;-64
2022/07/14 07:37:17;;;;;;;8.10;2.30;;;21.80;99.90;;;;;;5031048;28;20040;-64
2022/07/14 07:39:43;;;;;;;6.72;2.00;;;22.00;99.90;;;;;;5051079;28;20040;-64
2022/07/14 07:42:09;;;;;;;7.60;2.42;;;22.00;99.90;;;;;;5047241;28;20120;-64
2022/07/14 07:44:36;;;;;;;8.82;2.05;;;21.90;99.90;;;;;;5046699;28;20502;-63
2022/07/14 07:47:02;;;;;;;8.30;2.70;;;22.00;99.90;;;;;;5048948;28;20037;-63
2022/07/14 07:49:28;;;;;;;9.65;3.17;;;21.90;99.90;;;;;;5046239;28;20032;-64
2022/07/14 07:51:59;;;;;;;7.93;3.10;;;21.70;99.90;;;;;;5042441;28;20066;-63
2022/07/14 07:54:26;;;;;;;8.32;3.55;;;21.60;99.90;;;;;;5029759;28;20040;-64
2022/07/14 07:56:53;;;;;;;8.00;3.85;;;21.50;99.90;;;;;;5047626;28;20134;-63
2022/07/14 07:59:18;;;;;;;8.50;4.00;;;21.40;99.90;;;;;;5049124;28;20064;-63
2022/07/14 08:01:44;;;;;;;9.45;3.33;;;21.30;99.90;;;;;;5044250;28;20065;-64
2022/07/14 08:04:10;;;;;;;8.18;3.35;;;21.60;99.90;;;;;;5049104;28;20051;-63
2022/07/14 08:06:35;;;;;;;9.60;3.60;;;21.70;99.90;;;;;;5045181;28;20037;-64
2022/07/14 08:09:02;;;;;;;11.85;4.38;;;21.80;99.90;;;;;;5049371;28;20032;-63
2022/07/14 08:11:29;;;;;;;9.00;3.58;;;21.80;99.90;;;;;;5049738;28;20033;-64
2022/07/14 08:13:54;;;;;;;7.93;3.47;;;21.90;99.90;;;;;;5048548;28;20087;-64
2022/07/14 08:16:20;;;;;;;10.95;4.03;;;22.10;99.90;;;;;;5032543;28;20040;-64
2022/07/14 08:18:46;;;;;;;7.03;3.15;;;21.80;99.90;;;;;;5047752;28;20055;-64
2022/07/14 08:21:12;;;;;;;9.23;2.95;;;22.10;99.90;;;;;;5029935;28;20045;-63
2022/07/14 08:23:38;;;;;;;6.35;2.30;;;22.30;99.90;;;;;;5045896;28;20079;-63
2022/07/14 08:26:04;;;;;;;7.38;2.58;;;22.10;99.80;;;;;;5048866;28;20060;-63
2022/07/14 08:28:29;;;;;;;6.38;2.60;;;21.90;99.80;;;;;;5048656;28;20476;-64
2022/07/14 08:30:55;;;;;;;6.97;2.45;;;22.00;99.90;;;;;;5047603;28;20040;-64
2022/07/14 08:33:20;;;;;;;9.23;2.83;;;22.20;99.90;;;;;;5047176;28;20474;-64
2022/07/14 08:35:47;;;;;;;10.43;2.80;;;22.50;99.90;;;;;;5045284;28;20052;-64
2022/07/14 08:38:13;;;;;;;9.43;2.70;;;22.90;99.90;;;;;;5046448;28;20037;-64
2022/07/14 08:40:39;;;;;;;6.43;2.38;;;22.70;99.90;;;;;;5049040;28;20474;-64
2022/07/14 08:43:05;;;;;;;7.15;1.98;;;22.60;99.90;;;;;;5043561;28;20094;-64
2022/07/14 08:45:39;;;;;;;5.65;1.40;;;22.30;99.90;;;;;;5045576;28;20028;-64
2022/07/14 08:48:05;;;;;;;5.55;1.30;;;21.90;99.90;;;;;;5029133;28;20082;-63
2022/07/14 08:50:32;;;;;;;3.95;1.15;;;21.90;99.90;;;;;;5050649;28;20393;-64
2022/07/14 08:53:03;;;;;;;3.90;1.05;;;22.00;99.90;;;;;;5045948;28;20033;-64
2022/07/14 08:55:30;;;;;;;3.78;1.40;;;21.90;99.40;;;;;;5029422;28;20060;-64
2022/07/14 08:57:56;;;;;;;2.88;0.90;;;21.90;99.50;;;;;;5044893;28;20049;-63
2022/07/14 09:00:22;;;;;;;5.80;1.25;;;22.00;99.00;;;;;;5050324;28;20159;-64
2022/07/14 09:02:52;;;;;;;4.60;1.40;;;22.10;99.20;;;;;;5046085;28;20033;-65
2022/07/14 09:05:18;;;;;;;4.32;1.02;;;22.10;99.10;;;;;;5046088;28;20109;-64
2022/07/14 09:07:44;;;;;;;3.53;1.10;;;22.30;99.20;;;;;;5047839;28;20025;-64
2022/07/14 09:10:17;;;;;;;4.63;1.30;;;22.70;99.10;;;;;;5047069;28;20029;-64
2022/07/14 09:12:44;;;;;;;4.00;1.05;;;22.50;99.50;;;;;;5028018;28;20056;-64
2022/07/14 09:18:00;;;;;;;2.67;0.85;;;22.40;99.50;;;;;;5043772;28;20041;-64
2022/07/14 09:20:37;;;;;;;4.57;1.55;;;22.80;99.20;;;;;;5047801;28;20141;-64
2022/07/14 09:23:04;;;;;;;3.67;1.05;;;22.60;98.90;;;;;;5048126;28;20049;-64
2022/07/14 09:25:31;;;;;;;4.60;1.20;;;22.60;98.80;;;;;;5047126;28;20119;-64
2022/07/14 09:27:57;;;;;;;3.15;0.90;;;22.60;98.50;;;;;;5042586;28;20037;-64
2022/07/14 09:30:24;;;;;;;3.75;1.00;;;22.50;98.50;;;;;;5045197;28;20044;-63
2022/07/14 09:32:56;;;;;;;4.82;1.40;;;22.30;98.40;;;;;;5046119;28;20030;-64
2022/07/14 09:35:47;;;;;;;2.03;0.85;;;22.20;98.70;;;;;;5044015;28;20033;-64
2022/07/14 09:38:19;;;;;;;4.22;1.10;;;22.30;98.90;;;;;;5043603;28;20136;-62
2022/07/14 09:40:48;;;;;;;1.98;0.77;;;22.50;98.80;;;;;;5037885;28;20485;-63
2022/07/14 09:43:14;;;;;;;2.88;0.95;;;22.50;98.60;;;;;;5042077;28;20398;-63
2022/07/14 09:45:50;;;;;;;2.53;0.90;;;22.70;98.60;;;;;;5045719;28;20052;-63
2022/07/14 09:48:17;;;;;;;3.50;1.27;;;22.70;98.50;;;;;;5044961;28;20744;-63
2022/07/14 09:50:56;;;;;;;3.28;1.20;;;22.80;98.40;;;;;;5030690;28;20087;-62
2022/07/14 09:53:29;;;;;;;4.13;0.90;;;22.90;98.30;;;;;;5048946;28;20116;-64
2022/07/14 09:55:59;;;;;;;3.95;1.05;;;22.90;98.60;;;;;;5031434;28;20515;-64
2022/07/14 09:58:40;;;;;;;3.20;0.82;;;22.90;98.50;;;;;;5034965;28;20097;-64
2022/07/14 10:01:11;;;;;;;3.95;1.10;;;22.90;98.60;;;;;;5032362;28;20060;-64
2022/07/14 10:03:42;;;;;;;4.28;1.00;;;22.90;98.40;;;;;;5034036;28;20128;-64
2022/07/14 10:06:09;;;;;;;4.82;1.15;;;22.80;98.60;;;;;;5051597;28;20069;-64
2022/07/14 10:08:36;;;;;;;3.42;0.98;;;22.60;98.60;;;;;;5046171;28;20033;-63
2022/07/14 10:11:03;;;;;;;4.78;0.93;;;22.50;98.70;;;;;;5050528;28;20037;-64
2022/07/14 10:13:30;;;;;;;4.38;0.90;;;22.40;98.80;;;;;;5048671;28;20041;-63
2022/07/14 10:15:57;;;;;;;3.22;0.90;;;22.60;98.80;;;;;;5028919;28;20465;-63
2022/07/14 10:18:24;;;;;;;5.35;1.30;;;22.60;99.00;;;;;;5050309;28;20052;-63
2022/07/14 10:20:53;;;;;;;4.13;0.90;;;22.50;98.70;;;;;;5049255;28;20044;-64
2022/07/14 10:23:19;;;;;;;3.53;0.90;;;22.60;98.60;;;;;;5052111;28;20045;-64
2022/07/14 10:25:47;;;;;;;3.75;1.02;;;22.50;98.80;;;;;;5052454;28;20032;-64
2022/07/14 10:28:17;;;;;;;3.35;1.15;;;22.50;98.60;;;;;;5050129;28;20060;-64
2022/07/14 10:31:08;;;;;;;4.45;1.40;;;22.40;98.70;;;;;;5050916;28;20033;-64
2022/07/14 10:34:02;;;;;;;3.67;1.10;;;22.30;98.90;;;;;;5051956;28;20175;-64
2022/07/14 10:36:41;;;;;;;4.10;0.77;;;22.20;98.60;;;;;;5049142;28;20118;-63
2022/07/14 10:39:19;;;;;;;2.55;0.80;;;22.10;99.00;;;;;;5051582;28;20072;-65
2022/07/14 10:42:06;;;;;;;4.13;0.80;;;22.20;99.20;;;;;;5036580;28;20037;-62
2022/07/14 10:44:35;;;;;;;3.70;0.75;;;22.20;99.10;;;;;;5048926;28;20060;-63
2022/07/14 10:47:08;;;;;;;3.72;1.00;;;22.30;99.00;;;;;;5049644;28;20036;-63
2022/07/14 10:50:10;;;;;;;4.15;0.93;;;22.50;99.10;;;;;;5048554;28;20041;-63
2022/07/14 10:52:38;;;;;;;2.63;0.82;;;22.40;98.40;;;;;;5043068;28;20060;-63
2022/07/14 10:55:23;;;;;;;3.28;0.80;;;22.50;98.80;;;;;;5049221;28;20055;-62
2022/07/14 10:58:04;;;;;;;5.43;0.85;;;22.40;98.70;;;;;;5051441;28;20435;-62
2022/07/14 11:00:46;;;;;;;4.72;1.05;;;22.30;99.10;;;;;;5050588;28;20037;-61
2022/07/14 11:03:37;;;;;;;5.60;1.10;;;22.40;99.30;;;;;;5047221;28;20059;-62
2022/07/14 11:06:03;;;;;;;2.92;0.68;;;22.20;99.30;;;;;;5027315;28;20080;-63
2022/07/14 11:08:30;;;;;;;3.60;1.10;;;22.00;99.50;;;;;;5048069;28;20080;-62
2022/07/14 11:11:00;;;;;;;4.30;1.10;;;22.20;99.70;;;;;;5033875;28;20044;-63
2022/07/14 11:13:27;;;;;;;4.95;1.17;;;22.20;99.90;;;;;;5050822;28;20045;-62
2022/07/14 11:15:58;;;;;;;4.13;0.90;;;22.20;99.90;;;;;;5046116;28;20033;-64
2022/07/14 11:18:43;;;;;;;4.18;1.55;;;22.20;99.90;;;;;;5033918;28;20033;-63
2022/07/14 11:21:19;;;;;;;3.88;1.13;;;22.20;99.90;;;;;;5043446;28;20104;-63
2022/07/14 11:23:50;;;;;;;3.15;1.10;;;22.30;99.90;;;;;;5046383;28;20053;-64
2022/07/14 11:26:41;;;;;;;4.60;0.90;;;22.20;99.90;;;;;;5059657;28;20049;-63
2022/07/14 11:29:11;;;;;;;4.03;1.27;;;22.30;99.90;;;;;;5047061;28;20189;-62
2022/07/14 11:31:49;;;;;;;6.28;1.13;;;22.30;99.90;;;;;;5048171;28;20095;-63
2022/07/14 11:37:07;;;;;;;5.13;1.10;;;22.60;99.90;;;;;;5049712;28;20469;-64
2022/07/14 11:39:34;;;;;;;1.75;0.75;;;22.70;99.90;;;;;;5050375;28;20041;-62
2022/07/14 11:42:03;;;;;;;1.95;0.68;;;22.70;99.80;;;;;;5047052;28;20120;-63
2022/07/14 11:44:40;;;;;;;3.28;0.85;;;22.50;99.50;;;;;;5028070;28;20355;-63
2022/07/14 11:47:18;;;;;;;6.00;1.15;;;22.50;99.60;;;;;;5043535;28;20070;-63
2022/07/14 11:49:59;;;;;;;3.72;1.05;;;22.60;99.60;;;;;;5045409;28;20042;-63
2022/07/14 11:52:34;;;;;;;3.60;1.20;;;22.60;99.90;;;;;;5046657;28;20536;-63
2022/07/14 11:55:09;;;;;;;2.42;0.93;;;22.60;99.90;;;;;;5046005;28;20043;-62
2022/07/14 11:57:34;;;;;;;3.60;1.10;;;22.60;99.90;;;;;;5047196;28;20037;-62
2022/07/14 12:00:09;;;;;;;4.10;0.98;;;22.60;99.90;;;;;;5045153;28;20045;-62
2022/07/14 12:02:59;;;;;;;6.03;1.15;;;22.30;99.70;;;;;;5049111;28;20048;-63
2022/07/14 12:05:26;;;;;;;3.40;0.90;;;22.30;99.90;;;;;;5025384;28;20055;-63
2022/07/14 12:07:54;;;;;;;6.20;1.10;;;22.40;99.90;;;;;;5049918;28;20047;-63
2022/07/14 12:10:36;;;;;;;2.45;0.75;;;22.40;99.90;;;;;;5032476;28;20076;-63
2022/07/14 12:13:03;;;;;;;4.75;1.00;;;22.40;99.90;;;;;;5046144;28;20071;-63
2022/07/14 12:15:30;;;;;;;3.83;1.23;;;22.50;98.50;;;;;;5029366;28;20462;-63
2022/07/14 12:17:56;;;;;;;4.30;1.40;;;22.60;98.30;;;;;;5028116;28;20119;-63
2022/07/14 12:20:24;;;;;;;3.65;0.80;;;22.60;98.00;;;;;;5051086;28;20037;-64
2022/07/14 12:22:54;;;;;;;2.67;0.70;;;22.80;97.90;;;;;;5047599;28;20041;-62
2022/07/14 12:25:26;;;;;;;4.15;1.00;;;22.90;97.60;;;;;;5042932;28;20488;-62
2022/07/14 12:27:52;;;;;;;2.53;0.73;;;23.00;97.70;;;;;;5044106;28;20114;-62
2022/07/14 12:30:18;;;;;;;2.28;0.68;;;23.20;97.90;;;;;;5050345;28;20033;-62
2022/07/14 12:32:44;;;;;;;2.40;0.82;;;23.30;97.70;;;;;;5047465;28;20124;-62
2022/07/14 12:35:10;;;;;;;2.42;0.77;;;23.40;97.70;;;;;;5047673;28;20047;-62
2022/07/14 12:37:36;;;;;;;2.50;0.80;;;23.40;97.50;;;;;;5032484;28;20037;-63
2022/07/14 12:40:04;;;;;;;3.33;1.00;;;23.30;97.10;;;;;;5030743;28;20051;-64
2022/07/14 12:42:30;;;;;;;2.45;1.10;;;23.10;96.70;;;;;;5033887;28;20037;-63
2022/07/14 12:45:02;;;;;;;3.67;1.10;;;22.90;97.40;;;;;;5045886;28;20040;-62
2022/07/14 12:47:28;;;;;;;2.10;1.05;;;22.90;97.30;;;;;;5046590;28;20366;-63
2022/07/14 12:49:54;;;;;;;3.25;1.10;;;23.10;97.40;;;;;;5045025;28;20074;-63
2022/07/14 12:52:20;;;;;;;5.03;1.58;;;23.20;97.00;;;;;;5047449;28;20075;-63
2022/07/14 12:54:45;;;;;;;4.15;0.90;;;23.20;97.00;;;;;;5047988;28;20163;-62
2022/07/14 12:57:20;;;;;;;4.30;0.90;;;23.00;97.10;;;;;;5048289;28;20681;-64
2022/07/14 12:59:46;;;;;;;3.08;1.23;;;23.00;97.20;;;;;;5030373;28;20048;-63
2022/07/14 13:02:20;;;;;;;3.20;0.88;;;22.90;97.50;;;;;;5045139;28;20410;-63
2022/07/14 13:05:00;;;;;;;3.28;1.10;;;22.90;98.00;;;;;;5025711;28;20119;-63